createdAt,value
2023-02-07T00:01:23.426Z,20.40
2023-02-07T00:03:52.287Z,24.40
2023-02-07T00:06:23.839Z,26.73
2023-02-07T00:08:52.980Z,31.73
2023-02-07T00:11:23.090Z,21.47
2023-02-07T00:13:53.401Z,21.63
2023-02-07T00:16:22.313Z,24.87
2023-02-07T00:18:52.168Z,25.40
2023-02-07T00:21:24.176Z,20.53
2023-02-07T00:23:53.238Z,23.23
2023-02-07T00:26:23.277Z,27.07
2023-02-07T00:28:52.559Z,24.03
2023-02-07T00:31:22.723Z,24.53
2023-02-07T00:33:52.349Z,21.17
2023-02-07T00:36:24.811Z,16.50
2023-02-07T00:38:52.708Z,18.80
2023-02-07T00:41:20.709Z,29.03
2023-02-07T00:43:48.976Z,20.67
2023-02-07T00:46:17.913Z,24.60
2023-02-07T00:48:46.407Z,22.50
2023-02-07T00:51:15.225Z,21.43
2023-02-07T00:53:48.038Z,15.67
2023-02-07T00:56:16.833Z,19.97
2023-02-07T00:58:44.718Z,21.37
2023-02-07T01:01:13.812Z,21.57
2023-02-07T01:03:42.074Z,20.70
2023-02-07T01:06:11.471Z,20.43
2023-02-07T01:08:39.535Z,18.30
2023-02-07T01:11:10.965Z,18.57
2023-02-07T01:13:39.822Z,19.07
2023-02-07T01:16:08.263Z,21.53
2023-02-07T01:18:36.240Z,18.47
2023-02-07T01:21:15.588Z,17.70
2023-02-07T01:23:43.720Z,22.73
2023-02-07T01:26:13.123Z,20.63
2023-02-07T01:28:41.271Z,17.33
2023-02-07T01:31:09.764Z,20.90
2023-02-07T01:33:38.603Z,18.40
2023-02-07T01:36:08.156Z,18.03
2023-02-07T01:38:36.247Z,17.80
2023-02-07T01:41:04.669Z,20.43
2023-02-07T01:43:34.306Z,18.67
2023-02-07T01:46:02.282Z,21.87
2023-02-07T01:48:35.079Z,22.37
2023-02-07T01:51:07.558Z,17.87
2023-02-07T01:53:38.580Z,20.20
2023-02-07T01:56:17.653Z,25.47
2023-02-07T01:58:56.821Z,18.20
2023-02-07T02:01:26.360Z,18.83
2023-02-07T02:03:57.046Z,22.47
2023-02-07T02:06:28.365Z,15.27
2023-02-07T02:08:59.029Z,17.80
2023-02-07T02:11:57.743Z,19.97
2023-02-07T02:14:43.298Z,16.90
2023-02-07T02:17:22.388Z,18.07
2023-02-07T02:20:28.748Z,17.60
2023-02-07T02:23:14.153Z,14.80
2023-02-07T02:26:22.837Z,15.03
2023-02-07T02:29:29.614Z,16.87
2023-02-07T02:32:24.636Z,20.30
2023-02-07T02:34:59.717Z,15.07
2023-02-07T02:40:09.574Z,14.67
2023-02-07T02:42:43.391Z,12.30
2023-02-07T02:45:15.743Z,17.55
2023-02-07T02:47:47.451Z,18.77
2023-02-07T02:50:27.777Z,19.17
2023-02-07T02:52:55.764Z,17.60
2023-02-07T02:55:46.531Z,17.07
2023-02-07T02:58:27.783Z,20.90
2023-02-07T03:01:10.751Z,25.53
2023-02-07T03:03:55.934Z,14.60
2023-02-07T03:06:53.624Z,21.33
2023-02-07T03:09:32.236Z,17.70
2023-02-07T03:12:08.107Z,19.33
2023-02-07T03:14:46.664Z,19.03
2023-02-07T03:17:21.971Z,18.30
2023-02-07T03:19:56.381Z,16.10
2023-02-07T03:22:29.334Z,21.70
2023-02-07T03:25:00.286Z,18.97
2023-02-07T03:27:31.240Z,22.90
2023-02-07T03:30:02.027Z,20.37
2023-02-07T03:32:34.851Z,21.07
2023-02-07T03:35:09.833Z,25.07
2023-02-07T03:37:41.826Z,17.97
2023-02-07T03:40:11.344Z,23.50
2023-02-07T03:42:42.658Z,21.70
2023-02-07T03:45:15.657Z,22.97
2023-02-07T03:47:43.549Z,20.53
2023-02-07T03:50:12.692Z,23.13
2023-02-07T03:52:42.063Z,24.10
2023-02-07T03:55:10.689Z,20.73
2023-02-07T03:57:38.713Z,18.10
2023-02-07T04:00:08.054Z,21.83
2023-02-07T04:02:42.322Z,20.53
2023-02-07T04:05:12.352Z,23.93
2023-02-07T04:07:40.361Z,19.53
2023-02-07T04:10:11.733Z,20.53
2023-02-07T04:12:39.805Z,24.27
2023-02-07T04:15:09.697Z,20.97
2023-02-07T04:17:37.818Z,16.50
2023-02-07T04:20:09.139Z,21.67
2023-02-07T04:22:37.044Z,24.43
2023-02-07T04:25:06.682Z,17.67
2023-02-07T04:27:38.643Z,21.23
2023-02-07T04:30:07.446Z,19.30
2023-02-07T04:32:35.567Z,20.83
2023-02-07T04:35:03.875Z,23.40
2023-02-07T04:37:31.916Z,18.90
2023-02-07T04:39:59.890Z,16.83
2023-02-07T04:42:27.873Z,19.97
2023-02-07T04:44:57.184Z,17.33
2023-02-07T04:47:25.196Z,18.00
2023-02-07T04:49:53.130Z,17.70
2023-02-07T04:52:21.024Z,19.20
2023-02-07T04:54:48.970Z,16.23
2023-02-07T04:57:17.382Z,15.50
2023-02-07T04:59:45.279Z,15.23
2023-02-07T05:02:14.648Z,19.90
2023-02-07T05:04:42.564Z,20.43
2023-02-07T05:07:10.498Z,19.53
2023-02-07T05:09:38.454Z,16.53
2023-02-07T05:12:06.580Z,21.77
2023-02-07T05:14:34.672Z,18.50
2023-02-07T05:17:02.653Z,23.33
2023-02-07T05:19:32.479Z,16.40
2023-02-07T05:22:00.644Z,17.77
2023-02-07T05:24:28.703Z,19.23
2023-02-07T05:26:56.612Z,17.73
2023-02-07T05:29:24.607Z,18.53
2023-02-07T05:32:12.187Z,19.43
2023-02-07T05:34:41.565Z,18.98
2023-02-07T05:37:09.550Z,20.53
2023-02-07T05:39:37.451Z,18.27
2023-02-07T05:42:05.556Z,19.63
2023-02-07T05:44:36.484Z,17.77
2023-02-07T05:47:04.521Z,18.07
2023-02-07T05:49:32.745Z,20.40
2023-02-07T05:52:02.066Z,19.23
2023-02-07T05:54:29.975Z,20.47
2023-02-07T05:56:57.997Z,21.70
2023-02-07T05:59:26.003Z,21.17
2023-02-07T06:01:54.009Z,19.60
2023-02-07T06:04:21.960Z,16.73
2023-02-07T06:06:49.876Z,17.00
2023-02-07T06:09:19.594Z,17.47
2023-02-07T06:11:47.493Z,17.90
2023-02-07T06:14:15.411Z,15.60
2023-02-07T06:16:43.644Z,17.67
2023-02-07T06:19:12.949Z,18.47
2023-02-07T06:21:46.390Z,16.50
2023-02-07T06:24:15.080Z,19.83
2023-02-07T06:26:46.637Z,16.87
2023-02-07T06:29:14.711Z,22.43
2023-02-07T06:31:42.738Z,22.90
2023-02-07T06:34:11.015Z,21.40
2023-02-07T06:36:39.340Z,20.77
2023-02-07T06:39:07.497Z,17.90
2023-02-07T06:41:35.500Z,16.33
2023-02-07T06:44:05.850Z,19.13
2023-02-07T06:46:34.649Z,19.63
2023-02-07T06:49:02.820Z,22.30
2023-02-07T06:51:30.966Z,24.27
2023-02-07T06:53:59.708Z,20.27
2023-02-07T06:56:28.510Z,20.00
2023-02-07T06:58:56.456Z,23.57
2023-02-07T07:01:26.109Z,22.23
2023-02-07T07:03:56.682Z,22.57
2023-02-07T07:06:24.882Z,20.50
2023-02-07T07:08:53.149Z,20.47
2023-02-07T07:11:21.555Z,15.53
2023-02-07T07:13:49.624Z,19.20
2023-02-07T07:16:17.670Z,19.53
2023-02-07T07:18:47.058Z,19.50
2023-02-07T07:21:15.253Z,15.87
2023-02-07T07:23:43.220Z,20.23
2023-02-07T07:26:11.368Z,17.03
2023-02-07T07:28:39.400Z,19.90
2023-02-07T07:31:09.053Z,18.07
2023-02-07T07:33:38.035Z,16.43
2023-02-07T07:36:09.831Z,18.17
2023-02-07T07:41:11.231Z,25.60
2023-02-07T07:43:39.299Z,18.43
2023-02-07T07:46:07.821Z,20.13
2023-02-07T07:48:36.301Z,20.17
2023-02-07T07:51:04.491Z,18.83
2023-02-07T07:53:33.822Z,18.37
2023-02-07T07:56:01.882Z,23.03
2023-02-07T07:58:30.541Z,19.63
2023-02-07T08:00:58.618Z,22.80
2023-02-07T08:03:27.268Z,19.17
2023-02-07T08:05:55.842Z,25.77
2023-02-07T08:08:24.107Z,22.63
2023-02-07T08:10:54.096Z,25.50
2023-02-07T08:13:22.596Z,21.07
2023-02-07T08:15:50.874Z,24.00
2023-02-07T08:18:18.985Z,26.77
2023-02-07T08:20:47.251Z,25.53
2023-02-07T08:23:15.483Z,21.73
2023-02-07T08:25:44.660Z,23.57
2023-02-07T08:28:14.884Z,26.33
2023-02-07T08:30:43.299Z,27.93
2023-02-07T08:33:11.453Z,45.50
2023-02-07T08:35:39.455Z,27.63
2023-02-07T08:38:07.666Z,26.87
2023-02-07T08:40:36.365Z,27.47
2023-02-07T08:43:06.989Z,25.03
2023-02-07T08:45:36.654Z,36.37
2023-02-07T08:48:05.197Z,33.87
2023-02-07T08:50:33.280Z,19.00
2023-02-07T08:53:01.357Z,18.30
2023-02-07T08:55:29.625Z,29.03
2023-02-07T08:57:57.680Z,20.50
2023-02-07T09:00:25.681Z,32.13
2023-02-07T09:02:55.011Z,25.97
2023-02-07T09:05:23.009Z,18.93
2023-02-07T09:07:51.225Z,21.67
2023-02-07T09:10:19.318Z,19.77
2023-02-07T09:12:47.363Z,24.33
2023-02-07T09:15:15.464Z,20.57
2023-02-07T09:17:43.642Z,22.80
2023-02-07T09:20:13.900Z,22.50
2023-02-07T09:22:55.778Z,21.13
2023-02-07T09:25:23.934Z,22.00
2023-02-07T09:27:52.236Z,19.48
2023-02-07T09:30:20.330Z,24.63
2023-02-07T09:32:48.610Z,24.85
2023-02-07T09:35:18.181Z,24.13
2023-02-07T09:37:49.781Z,26.60
2023-02-07T09:40:20.408Z,49.83
2023-02-07T09:42:56.625Z,21.65
2023-02-07T09:45:30.798Z,24.92
2023-02-07T09:48:04.241Z,23.13
2023-02-07T09:50:38.407Z,17.17
2023-02-07T09:53:15.680Z,21.95
2023-02-07T09:55:50.279Z,17.98
2023-02-07T09:58:22.393Z,19.92
2023-02-07T10:00:59.364Z,21.65
2023-02-07T10:03:29.489Z,21.45
2023-02-07T10:06:16.995Z,20.23
2023-02-07T10:08:47.265Z,17.20
2023-02-07T10:11:22.225Z,15.55
2023-02-07T10:14:07.240Z,14.95
2023-02-07T10:16:51.458Z,22.65
2023-02-07T10:19:33.833Z,15.00
2023-02-07T10:22:16.670Z,25.30
2023-02-07T10:25:12.947Z,26.45
2023-02-07T10:27:51.826Z,20.50
2023-02-07T10:30:26.914Z,16.67
2023-02-07T10:32:55.380Z,17.00
2023-02-07T10:35:32.129Z,16.38
2023-02-07T10:38:03.612Z,21.20
2023-02-07T10:40:37.669Z,16.33
2023-02-07T10:43:11.781Z,15.57
2023-02-07T10:45:43.072Z,17.17
2023-02-07T10:48:15.552Z,15.48
2023-02-07T10:50:44.898Z,15.68
2023-02-07T10:53:54.257Z,16.75
2023-02-07T10:56:25.566Z,17.85
2023-02-07T10:58:54.190Z,14.13
2023-02-07T11:01:24.333Z,12.88
2023-02-07T11:03:52.920Z,14.30
2023-02-07T11:06:27.687Z,16.02
2023-02-07T11:09:21.031Z,15.23
2023-02-07T11:11:50.678Z,14.00
2023-02-07T11:14:26.332Z,12.95
2023-02-07T11:16:55.606Z,13.02
2023-02-07T11:19:27.691Z,15.93
2023-02-07T11:22:07.042Z,12.73
2023-02-07T11:24:38.979Z,10.30
2023-02-07T11:27:12.737Z,17.27
2023-02-07T11:29:47.740Z,13.67
2023-02-07T11:32:17.129Z,13.15
2023-02-07T11:34:49.122Z,14.18
2023-02-07T11:37:29.671Z,13.27
2023-02-07T11:40:23.453Z,18.23
2023-02-07T11:42:59.821Z,13.55
2023-02-07T11:45:29.246Z,15.70
2023-02-07T11:47:59.983Z,17.67
2023-02-07T11:50:31.351Z,13.40
2023-02-07T11:53:01.268Z,13.55
2023-02-07T11:55:35.054Z,11.35
2023-02-07T11:58:10.366Z,13.52
2023-02-07T12:00:39.680Z,12.93
2023-02-07T12:03:15.295Z,13.23
2023-02-07T12:05:47.359Z,12.35
2023-02-07T12:08:19.568Z,11.93
2023-02-07T12:10:53.780Z,25.20
2023-02-07T12:13:25.302Z,14.95
2023-02-07T12:15:57.453Z,13.20
2023-02-07T12:18:30.621Z,20.13
2023-02-07T12:21:05.699Z,18.83
2023-02-07T12:23:43.630Z,14.60
2023-02-07T12:26:23.016Z,17.83
2023-02-07T12:29:13.285Z,12.27
2023-02-07T12:31:51.854Z,15.35
2023-02-07T12:34:28.678Z,13.32
2023-02-07T12:37:04.436Z,13.18
2023-02-07T12:39:41.925Z,13.38
2023-02-07T12:42:29.352Z,11.25
2023-02-07T12:45:01.517Z,11.20
2023-02-07T12:47:43.906Z,18.25
2023-02-07T12:50:24.675Z,12.73
2023-02-07T12:53:02.892Z,11.95
2023-02-07T12:55:43.508Z,12.63
2023-02-07T12:58:31.461Z,9.13
2023-02-07T13:01:06.075Z,11.23
2023-02-07T13:08:16.948Z,10.15
2023-02-07T13:10:56.360Z,10.95
2023-02-07T13:13:30.058Z,9.57
2023-02-07T13:16:04.390Z,8.15
2023-02-07T13:18:40.738Z,15.25
2023-02-07T13:21:18.729Z,12.25
2023-02-07T13:23:49.473Z,10.18
2023-02-07T13:26:21.211Z,11.52
2023-02-07T13:28:55.250Z,12.30
2023-02-07T13:31:28.773Z,9.13
2023-02-07T13:33:56.955Z,9.48
2023-02-07T13:36:42.294Z,11.80
2023-02-07T13:39:25.346Z,10.18
2023-02-07T13:42:04.054Z,10.00
2023-02-07T13:44:40.559Z,11.38
2023-02-07T13:47:34.962Z,11.65
2023-02-07T13:50:12.166Z,9.43
2023-02-07T13:52:48.678Z,12.02
2023-02-07T13:55:25.966Z,7.88
2023-02-07T13:58:12.133Z,13.93
2023-02-07T14:01:01.937Z,11.10
2023-02-07T14:03:31.825Z,11.75
2023-02-07T14:06:21.323Z,8.93
2023-02-07T14:09:04.893Z,9.60
2023-02-07T14:11:39.181Z,11.20
2023-02-07T14:14:15.513Z,12.57
2023-02-07T14:16:49.210Z,10.45
2023-02-07T14:19:37.313Z,8.90
2023-02-07T14:22:17.943Z,10.70
2023-02-07T14:25:21.886Z,11.10
2023-02-07T14:28:19.679Z,11.73
2023-02-07T14:31:03.480Z,14.10
2023-02-07T14:33:36.384Z,12.75
2023-02-07T14:36:20.766Z,12.07
2023-02-07T14:39:23.814Z,11.60
2023-02-07T14:41:53.437Z,14.50
2023-02-07T14:44:25.915Z,9.55
2023-02-07T14:46:57.897Z,12.50
2023-02-07T14:49:33.490Z,12.82
2023-02-07T14:52:06.904Z,11.60
2023-02-07T14:54:43.945Z,8.55
2023-02-07T14:57:23.118Z,10.02
2023-02-07T15:00:02.824Z,8.82
2023-02-07T15:02:34.872Z,8.77
2023-02-07T15:05:21.511Z,9.52
2023-02-07T15:07:57.045Z,9.05
2023-02-07T15:10:28.661Z,11.57
2023-02-07T15:12:57.089Z,9.93
2023-02-07T15:15:27.308Z,11.30
2023-02-07T15:17:57.404Z,11.35
2023-02-07T15:20:29.093Z,11.88
2023-02-07T15:22:59.028Z,10.73
2023-02-07T15:25:30.729Z,11.93
2023-02-07T15:28:03.831Z,17.63
2023-02-07T15:30:32.894Z,16.77
2023-02-07T15:33:01.046Z,9.82
2023-02-07T15:35:37.155Z,9.05
2023-02-07T15:38:17.545Z,9.50
2023-02-07T15:40:47.085Z,13.82
2023-02-07T15:43:26.545Z,11.45
2023-02-07T15:46:10.353Z,12.20
2023-02-07T15:48:50.380Z,10.15
2023-02-07T15:51:21.556Z,13.85
2023-02-07T15:53:52.141Z,14.20
2023-02-07T15:56:21.775Z,13.50
2023-02-07T15:58:51.361Z,12.45
2023-02-07T16:01:24.749Z,13.73
2023-02-07T16:03:56.618Z,11.63
2023-02-07T16:06:26.716Z,18.60
2023-02-07T16:08:58.477Z,12.13
2023-02-07T16:11:41.192Z,14.35
2023-02-07T16:14:21.352Z,17.25
2023-02-07T16:16:53.972Z,12.88
2023-02-07T16:19:26.296Z,15.05
2023-02-07T16:22:03.829Z,18.67
2023-02-07T16:25:14.771Z,14.00
2023-02-07T16:27:45.284Z,11.93
2023-02-07T16:30:17.036Z,12.48
2023-02-07T16:32:45.105Z,14.52
2023-02-07T16:35:19.836Z,13.80
2023-02-07T16:37:47.793Z,9.82
2023-02-07T16:40:15.905Z,12.90
2023-02-07T16:42:45.867Z,12.45
2023-02-07T16:45:19.705Z,14.20
2023-02-07T16:47:49.538Z,14.32
2023-02-07T16:50:19.810Z,11.50
2023-02-07T16:52:49.288Z,13.23
2023-02-07T16:55:17.490Z,15.30
2023-02-07T16:57:48.885Z,17.65
2023-02-07T17:00:19.355Z,14.65
2023-02-07T17:02:48.613Z,20.13
2023-02-07T17:05:16.969Z,13.48
2023-02-07T17:07:46.159Z,14.25
2023-02-07T17:10:22.607Z,15.45
2023-02-07T17:12:51.932Z,14.68
2023-02-07T17:15:19.868Z,15.43
2023-02-07T17:17:47.990Z,15.20
2023-02-07T17:20:25.311Z,13.38
2023-02-07T17:22:53.919Z,17.60
2023-02-07T17:25:24.069Z,21.35
2023-02-07T17:27:53.503Z,17.95
2023-02-07T17:30:23.978Z,21.88
2023-02-07T17:32:52.188Z,17.85
2023-02-07T17:35:20.639Z,15.82
2023-02-07T17:37:49.907Z,13.25
2023-02-07T17:40:30.845Z,15.32
2023-02-07T17:43:00.789Z,16.15
2023-02-07T17:45:29.988Z,18.05
2023-02-07T17:47:58.128Z,17.15
2023-02-07T17:50:29.636Z,22.85
2023-02-07T17:53:01.399Z,21.80
2023-02-07T17:55:30.009Z,28.52
2023-02-07T17:57:57.962Z,15.55
2023-02-07T18:00:29.399Z,16.25
2023-02-07T18:02:57.608Z,17.63
2023-02-07T18:05:25.943Z,21.15
2023-02-07T18:07:54.299Z,14.68
2023-02-07T18:10:24.589Z,18.05
2023-02-07T18:12:52.820Z,23.98
2023-02-07T18:15:21.226Z,17.50
2023-02-07T18:17:51.864Z,16.27
2023-02-07T18:20:24.778Z,16.73
2023-02-07T18:22:54.349Z,18.23
2023-02-07T18:25:22.411Z,17.65
2023-02-07T18:27:51.860Z,18.20
2023-02-07T18:30:21.632Z,16.08
2023-02-07T18:32:51.083Z,12.38
2023-02-07T18:35:19.698Z,18.90
2023-02-07T18:37:47.682Z,16.33
2023-02-07T18:40:16.812Z,21.67
2023-02-07T18:42:45.113Z,19.48
2023-02-07T18:45:14.473Z,20.85
2023-02-07T18:47:43.390Z,30.70
2023-02-07T18:50:13.712Z,20.25
2023-02-07T18:52:41.680Z,21.45
2023-02-07T18:55:10.210Z,22.65
2023-02-07T18:57:38.167Z,22.67
2023-02-07T19:00:09.310Z,15.77
2023-02-07T19:02:37.694Z,19.52
2023-02-07T19:05:07.736Z,21.95
2023-02-07T19:07:37.013Z,22.00
2023-02-07T19:10:08.183Z,17.00
2023-02-07T19:12:36.156Z,15.90
2023-02-07T19:15:05.472Z,14.82
2023-02-07T19:17:33.440Z,21.20
2023-02-07T19:20:01.355Z,15.32
2023-02-07T19:22:37.612Z,20.73
2023-02-07T19:25:07.852Z,16.08
2023-02-07T19:27:35.867Z,20.40
2023-02-07T19:30:03.889Z,17.83
2023-02-07T19:32:31.928Z,18.08
2023-02-07T19:34:59.977Z,27.70
2023-02-07T19:37:27.874Z,21.60
2023-02-07T19:39:56.504Z,21.65
2023-02-07T19:42:26.006Z,20.02
2023-02-07T19:44:54.059Z,21.60
2023-02-07T19:47:21.999Z,18.25
2023-02-07T19:49:54.956Z,26.02
2023-02-07T19:52:24.069Z,18.33
2023-02-07T19:54:53.110Z,19.77
2023-02-07T19:57:22.490Z,22.17
2023-02-07T19:59:52.283Z,21.75
2023-02-07T20:02:20.186Z,17.02
2023-02-07T20:04:48.237Z,14.18
2023-02-07T20:07:16.230Z,19.52
2023-02-07T20:09:44.286Z,23.85
2023-02-07T20:12:12.297Z,21.00
2023-02-07T20:14:40.380Z,19.88
2023-02-07T20:17:09.866Z,16.90
2023-02-07T20:19:38.128Z,20.02
2023-02-07T20:22:06.071Z,18.55
2023-02-07T20:24:34.118Z,16.25
2023-02-07T20:27:02.032Z,20.50
2023-02-07T20:29:31.436Z,22.67
2023-02-07T20:31:59.436Z,18.08
2023-02-07T20:34:28.854Z,28.90
2023-02-07T20:36:57.086Z,23.15
2023-02-07T20:39:26.446Z,28.98
2023-02-07T20:41:54.382Z,21.05
2023-02-07T20:44:26.571Z,22.30
2023-02-07T20:46:55.804Z,18.23
2023-02-07T20:49:27.261Z,19.98
2023-02-07T20:51:58.350Z,22.98
2023-02-07T20:54:28.407Z,21.10
2023-02-07T20:56:58.092Z,21.88
2023-02-07T20:59:27.665Z,22.75
2023-02-07T21:01:57.947Z,24.05
2023-02-07T21:04:26.890Z,24.95
2023-02-07T21:06:56.201Z,22.20
2023-02-07T21:09:24.387Z,22.92
2023-02-07T21:11:53.576Z,19.58
2023-02-07T21:14:25.597Z,20.38
2023-02-07T21:16:54.675Z,23.17
2023-02-07T21:19:23.284Z,24.67
2023-02-07T21:21:52.143Z,19.30
2023-02-07T21:24:26.241Z,18.25
2023-02-07T21:26:57.792Z,22.23
2023-02-07T21:29:27.980Z,16.90
2023-02-07T21:31:56.448Z,17.02
2023-02-07T21:34:29.953Z,20.27
2023-02-07T21:37:01.800Z,20.48
2023-02-07T21:39:33.729Z,19.23
2023-02-07T21:42:03.848Z,21.48
2023-02-07T21:44:37.678Z,24.00
2023-02-07T21:47:05.748Z,25.52
2023-02-07T21:49:39.695Z,23.70
2023-02-07T21:54:43.743Z,27.35
2023-02-07T21:57:17.381Z,20.23
2023-02-07T21:59:48.250Z,22.35
2023-02-07T22:02:16.267Z,22.20
2023-02-07T22:04:44.203Z,20.65
2023-02-07T22:07:12.149Z,20.25
2023-02-07T22:09:44.013Z,19.95
2023-02-07T22:12:11.981Z,19.83
2023-02-07T22:14:41.759Z,21.13
2023-02-07T22:17:12.277Z,24.67
2023-02-07T22:19:43.613Z,24.02
2023-02-07T22:22:13.913Z,19.70
2023-02-07T22:24:43.264Z,21.25
2023-02-07T22:27:12.070Z,21.58
2023-02-07T22:29:40.295Z,26.52
2023-02-07T22:32:08.250Z,30.75
2023-02-07T22:34:37.429Z,19.60
2023-02-07T22:37:05.292Z,22.88
2023-02-07T22:39:33.383Z,17.38
2023-02-07T22:42:02.793Z,23.52
2023-02-07T22:44:35.682Z,19.88
2023-02-07T22:47:06.669Z,21.48
2023-02-07T22:49:35.536Z,20.10
2023-02-07T22:52:06.766Z,23.58
2023-02-07T22:54:36.828Z,26.02
2023-02-07T22:57:07.933Z,26.35
2023-02-07T22:59:35.883Z,23.50
2023-02-07T23:02:03.946Z,23.27
2023-02-07T23:04:31.955Z,25.13
2023-02-07T23:07:00.652Z,22.90
2023-02-07T23:09:28.673Z,23.55
2023-02-07T23:11:58.820Z,25.30
2023-02-07T23:14:30.861Z,18.23
2023-02-07T23:17:00.918Z,18.40
2023-02-07T23:19:28.971Z,25.67
2023-02-07T23:21:59.098Z,24.27
2023-02-07T23:24:29.779Z,20.33
2023-02-07T23:26:57.780Z,23.85
2023-02-07T23:29:26.165Z,21.67
2023-02-07T23:31:55.454Z,21.10
2023-02-07T23:34:23.484Z,22.08
2023-02-07T23:36:51.371Z,20.08
2023-02-07T23:39:19.375Z,24.17
2023-02-07T23:41:50.440Z,23.52
2023-02-07T23:44:18.496Z,27.83
2023-02-07T23:46:46.642Z,27.80
2023-02-07T23:49:15.970Z,22.47
2023-02-07T23:51:45.453Z,23.17
2023-02-07T23:54:16.141Z,21.20
2023-02-07T23:56:54.272Z,20.83
2023-02-07T23:59:26.256Z,28.58
